sensor_id;sensor_type;location;lat;lon;timestamp;temperature;humidity
15937;DHT22;9163;48.818;8.976;2023-08-01T00:00:45;16.70;99.90
15937;DHT22;9163;48.818;8.976;2023-08-01T00:03:13;16.70;99.90
15937;DHT22;9163;48.818;8.976;2023-08-01T00:05:40;16.80;99.90
15937;DHT22;9163;48.818;8.976;2023-08-01T00:08:10;16.70;99.90
15937;DHT22;9163;48.818;8.976;2023-08-01T00:10:39;16.80;99.90
15937;DHT22;9163;48.818;8.976;2023-08-01T00:13:07;16.70;99.90
15937;DHT22;9163;48.818;8.976;2023-08-01T00:15:34;16.70;99.90
15937;DHT22;9163;48.818;8.976;2023-08-01T00:18:03;16.70;99.90
15937;DHT22;9163;48.818;8.976;2023-08-01T00:20:30;16.70;99.90
15937;DHT22;9163;48.818;8.976;2023-08-01T00:22:58;16.70;99.90
15937;DHT22;9163;48.818;8.976;2023-08-01T00:25:25;16.60;99.90
15937;DHT22;9163;48.818;8.976;2023-08-01T00:27:53;16.60;99.90
15937;DHT22;9163;48.818;8.976;2023-08-01T00:30:20;16.60;99.90
15937;DHT22;9163;48.818;8.976;2023-08-01T00:32:47;16.60;99.90
15937;DHT22;9163;48.818;8.976;2023-08-01T00:35:16;16.60;99.90
15937;DHT22;9163;48.818;8.976;2023-08-01T00:37:43;16.60;99.90
15937;DHT22;9163;48.818;8.976;2023-08-01T00:40:11;16.60;99.90
15937;DHT22;9163;48.818;8.976;2023-08-01T00:42:38;16.60;99.90
15937;DHT22;9163;48.818;8.976;2023-08-01T00:45:06;16.60;99.90
15937;DHT22;9163;48.818;8.976;2023-08-01T00:47:34;16.60;99.90
15937;DHT22;9163;48.818;8.976;2023-08-01T00:50:02;16.60;99.90
15937;DHT22;9163;48.818;8.976;2023-08-01T00:52:31;16.60;99.90
15937;DHT22;9163;48.818;8.976;2023-08-01T00:54:58;16.60;99.90
15937;DHT22;9163;48.818;8.976;2023-08-01T00:57:26;16.60;99.90
15937;DHT22;9163;48.818;8.976;2023-08-01T00:59:53;16.50;99.90
15937;DHT22;9163;48.818;8.976;2023-08-01T01:02:20;16.50;99.90
15937;DHT22;9163;48.818;8.976;2023-08-01T01:04:48;16.50;99.90
15937;DHT22;9163;48.818;8.976;2023-08-01T01:07:17;16.50;99.90
15937;DHT22;9163;48.818;8.976;2023-08-01T01:09:45;16.50;99.90
15937;DHT22;9163;48.818;8.976;2023-08-01T01:12:13;16.60;99.90
15937;DHT22;9163;48.818;8.976;2023-08-01T01:14:40;16.60;99.90
15937;DHT22;9163;48.818;8.976;2023-08-01T01:17:07;16.70;99.90
15937;DHT22;9163;48.818;8.976;2023-08-01T01:19:34;16.70;99.90
15937;DHT22;9163;48.818;8.976;2023-08-01T01:22:05;16.80;99.90
15937;DHT22;9163;48.818;8.976;2023-08-01T01:24:34;16.80;99.90
15937;DHT22;9163;48.818;8.976;2023-08-01T01:27:03;16.70;99.90
15937;DHT22;9163;48.818;8.976;2023-08-01T01:29:32;16.70;99.90
15937;DHT22;9163;48.818;8.976;2023-08-01T01:32:01;16.60;99.90
15937;DHT22;9163;48.818;8.976;2023-08-01T01:34:28;16.60;99.90
15937;DHT22;9163;48.818;8.976;2023-08-01T01:36:55;16.50;99.90
15937;DHT22;9163;48.818;8.976;2023-08-01T01:39:24;16.40;99.90
15937;DHT22;9163;48.818;8.976;2023-08-01T01:41:51;16.40;99.90
15937;DHT22;9163;48.818;8.976;2023-08-01T01:44:19;16.40;99.90
15937;DHT22;9163;48.818;8.976;2023-08-01T01:46:46;16.40;99.90
15937;DHT22;9163;48.818;8.976;2023-08-01T01:49:15;16.30;99.90
15937;DHT22;9163;48.818;8.976;2023-08-01T01:51:42;16.30;99.90
15937;DHT22;9163;48.818;8.976;2023-08-01T01:54:09;16.30;99.90
15937;DHT22;9163;48.818;8.976;2023-08-01T01:56:38;16.30;99.90
15937;DHT22;9163;48.818;8.976;2023-08-01T01:59:05;16.30;99.90
15937;DHT22;9163;48.818;8.976;2023-08-01T02:01:32;16.30;99.90
15937;DHT22;9163;48.818;8.976;2023-08-01T02:04:00;16.20;99.90
15937;DHT22;9163;48.818;8.976;2023-08-01T02:06:27;16.20;99.90
15937;DHT22;9163;48.818;8.976;2023-08-01T02:08:54;16.20;99.90
15937;DHT22;9163;48.818;8.976;2023-08-01T02:11:21;16.20;99.90
15937;DHT22;9163;48.818;8.976;2023-08-01T02:13:50;16.20;99.90
15937;DHT22;9163;48.818;8.976;2023-08-01T02:16:17;16.20;99.90
15937;DHT22;9163;48.818;8.976;2023-08-01T02:18:44;16.30;99.90
15937;DHT22;9163;48.818;8.976;2023-08-01T02:21:12;16.30;99.90
15937;DHT22;9163;48.818;8.976;2023-08-01T02:23:39;16.30;99.90
15937;DHT22;9163;48.818;8.976;2023-08-01T02:26:06;16.30;99.90
15937;DHT22;9163;48.818;8.976;2023-08-01T02:28:34;16.30;99.90
15937;DHT22;9163;48.818;8.976;2023-08-01T02:31:02;16.30;99.90
15937;DHT22;9163;48.818;8.976;2023-08-01T02:33:30;16.30;99.90
15937;DHT22;9163;48.818;8.976;2023-08-01T02:35:57;16.30;99.90
15937;DHT22;9163;48.818;8.976;2023-08-01T02:38:24;16.40;99.90
15937;DHT22;9163;48.818;8.976;2023-08-01T02:40:51;16.50;99.90
15937;DHT22;9163;48.818;8.976;2023-08-01T02:43:18;16.50;99.90
15937;DHT22;9163;48.818;8.976;2023-08-01T02:45:46;16.40;99.90
15937;DHT22;9163;48.818;8.976;2023-08-01T02:48:14;16.40;99.90
15937;DHT22;9163;48.818;8.976;2023-08-01T02:50:42;16.40;99.90
15937;DHT22;9163;48.818;8.976;2023-08-01T02:53:09;16.40;99.90
15937;DHT22;9163;48.818;8.976;2023-08-01T02:55:36;16.40;99.90
15937;DHT22;9163;48.818;8.976;2023-08-01T02:58:04;16.40;99.90
15937;DHT22;9163;48.818;8.976;2023-08-01T03:00:31;16.40;99.90
15937;DHT22;9163;48.818;8.976;2023-08-01T03:02:58;16.40;99.90
15937;DHT22;9163;48.818;8.976;2023-08-01T03:05:27;16.50;99.90
15937;DHT22;9163;48.818;8.976;2023-08-01T03:07:54;16.40;99.90
15937;DHT22;9163;48.818;8.976;2023-08-01T03:10:21;16.50;99.90
15937;DHT22;9163;48.818;8.976;2023-08-01T03:12:49;16.50;99.90
15937;DHT22;9163;48.818;8.976;2023-08-01T03:15:16;16.50;99.90
15937;DHT22;9163;48.818;8.976;2023-08-01T03:17:43;16.50;99.90
15937;DHT22;9163;48.818;8.976;2023-08-01T03:20:11;16.50;99.90
15937;DHT22;9163;48.818;8.976;2023-08-01T03:22:40;16.60;99.90
15937;DHT22;9163;48.818;8.976;2023-08-01T03:25:08;16.70;99.90
15937;DHT22;9163;48.818;8.976;2023-08-01T03:27:35;16.90;99.90
15937;DHT22;9163;48.818;8.976;2023-08-01T03:30:03;17.00;99.90
15937;DHT22;9163;48.818;8.976;2023-08-01T03:32:31;17.10;99.90
15937;DHT22;9163;48.818;8.976;2023-08-01T03:34:59;17.10;99.90
15937;DHT22;9163;48.818;8.976;2023-08-01T03:37:26;17.00;99.90
15937;DHT22;9163;48.818;8.976;2023-08-01T03:39:54;17.10;99.90
15937;DHT22;9163;48.818;8.976;2023-08-01T03:42:22;17.10;99.90
15937;DHT22;9163;48.818;8.976;2023-08-01T03:44:49;17.00;99.90
15937;DHT22;9163;48.818;8.976;2023-08-01T03:47:16;17.00;99.90
15937;DHT22;9163;48.818;8.976;2023-08-01T03:49:43;16.90;99.90
15937;DHT22;9163;48.818;8.976;2023-08-01T03:52:11;16.90;99.90
15937;DHT22;9163;48.818;8.976;2023-08-01T03:54:38;16.90;99.90
15937;DHT22;9163;48.818;8.976;2023-08-01T03:57:06;16.90;99.90
15937;DHT22;9163;48.818;8.976;2023-08-01T03:59:34;16.90;99.90
15937;DHT22;9163;48.818;8.976;2023-08-01T04:02:01;16.90;99.90
15937;DHT22;9163;48.818;8.976;2023-08-01T04:04:28;16.90;99.90
15937;DHT22;9163;48.818;8.976;2023-08-01T04:06:57;16.90;99.90
15937;DHT22;9163;48.818;8.976;2023-08-01T04:09:24;17.10;99.90
15937;DHT22;9163;48.818;8.976;2023-08-01T04:11:51;17.10;99.90
15937;DHT22;9163;48.818;8.976;2023-08-01T04:14:20;17.10;99.90
15937;DHT22;9163;48.818;8.976;2023-08-01T04:16:47;17.00;99.90
15937;DHT22;9163;48.818;8.976;2023-08-01T04:19:14;17.00;99.90
15937;DHT22;9163;48.818;8.976;2023-08-01T04:21:41;17.00;99.90
15937;DHT22;9163;48.818;8.976;2023-08-01T04:24:09;17.10;99.90
15937;DHT22;9163;48.818;8.976;2023-08-01T04:26:36;17.10;99.90
15937;DHT22;9163;48.818;8.976;2023-08-01T04:29:03;17.10;99.90
15937;DHT22;9163;48.818;8.976;2023-08-01T04:31:32;17.10;99.90
15937;DHT22;9163;48.818;8.976;2023-08-01T04:33:59;17.10;99.90
15937;DHT22;9163;48.818;8.976;2023-08-01T04:36:26;17.10;99.90
15937;DHT22;9163;48.818;8.976;2023-08-01T04:38:54;17.20;99.90
15937;DHT22;9163;48.818;8.976;2023-08-01T04:41:21;17.20;99.90
15937;DHT22;9163;48.818;8.976;2023-08-01T04:43:48;17.20;99.90
15937;DHT22;9163;48.818;8.976;2023-08-01T04:46:15;17.20;99.90
15937;DHT22;9163;48.818;8.976;2023-08-01T04:48:44;17.30;99.90
15937;DHT22;9163;48.818;8.976;2023-08-01T04:51:12;17.20;99.90
15937;DHT22;9163;48.818;8.976;2023-08-01T04:53:39;17.20;99.90
15937;DHT22;9163;48.818;8.976;2023-08-01T04:56:06;17.30;99.90
15937;DHT22;9163;48.818;8.976;2023-08-01T04:58:33;17.40;99.90
15937;DHT22;9163;48.818;8.976;2023-08-01T05:01:01;17.50;99.90
15937;DHT22;9163;48.818;8.976;2023-08-01T05:03:28;17.40;99.90
15937;DHT22;9163;48.818;8.976;2023-08-01T05:05:57;17.40;99.90
15937;DHT22;9163;48.818;8.976;2023-08-01T05:08:24;17.30;99.90
15937;DHT22;9163;48.818;8.976;2023-08-01T05:10:51;17.20;99.90
15937;DHT22;9163;48.818;8.976;2023-08-01T05:13:19;17.10;99.90
15937;DHT22;9163;48.818;8.976;2023-08-01T05:15:46;16.90;99.90
15937;DHT22;9163;48.818;8.976;2023-08-01T05:18:14;16.90;99.90
15937;DHT22;9163;48.818;8.976;2023-08-01T05:20:41;16.90;99.90
15937;DHT22;9163;48.818;8.976;2023-08-01T05:23:10;16.90;99.90
15937;DHT22;9163;48.818;8.976;2023-08-01T05:25:37;16.80;99.90
15937;DHT22;9163;48.818;8.976;2023-08-01T05:28:04;16.80;99.90
15937;DHT22;9163;48.818;8.976;2023-08-01T05:30:31;16.80;99.90
15937;DHT22;9163;48.818;8.976;2023-08-01T05:32:59;16.80;99.90
15937;DHT22;9163;48.818;8.976;2023-08-01T05:35:26;16.80;99.90
15937;DHT22;9163;48.818;8.976;2023-08-01T05:37:53;16.80;99.90
15937;DHT22;9163;48.818;8.976;2023-08-01T05:40:22;16.90;99.90
15937;DHT22;9163;48.818;8.976;2023-08-01T05:42:49;17.00;99.90
15937;DHT22;9163;48.818;8.976;2023-08-01T05:45:17;17.10;99.90
15937;DHT22;9163;48.818;8.976;2023-08-01T05:47:44;17.10;99.90
15937;DHT22;9163;48.818;8.976;2023-08-01T05:50:11;17.10;99.90
15937;DHT22;9163;48.818;8.976;2023-08-01T05:52:39;17.10;99.90
15937;DHT22;9163;48.818;8.976;2023-08-01T05:55:06;17.20;99.90
15937;DHT22;9163;48.818;8.976;2023-08-01T05:57:35;17.20;99.90
15937;DHT22;9163;48.818;8.976;2023-08-01T06:00:03;17.20;99.90
15937;DHT22;9163;48.818;8.976;2023-08-01T06:02:31;17.30;99.90
15937;DHT22;9163;48.818;8.976;2023-08-01T06:04:58;17.30;99.90
15937;DHT22;9163;48.818;8.976;2023-08-01T06:07:25;17.20;99.90
15937;DHT22;9163;48.818;8.976;2023-08-01T06:09:52;17.20;99.90
15937;DHT22;9163;48.818;8.976;2023-08-01T06:12:20;17.20;99.90
15937;DHT22;9163;48.818;8.976;2023-08-01T06:14:48;17.30;99.90
15937;DHT22;9163;48.818;8.976;2023-08-01T06:17:15;17.20;99.90
15937;DHT22;9163;48.818;8.976;2023-08-01T06:19:43;17.20;99.90
15937;DHT22;9163;48.818;8.976;2023-08-01T06:22:10;17.10;99.90
15937;DHT22;9163;48.818;8.976;2023-08-01T06:24:37;16.80;99.90
15937;DHT22;9163;48.818;8.976;2023-08-01T06:27:05;16.50;99.90
15937;DHT22;9163;48.818;8.976;2023-08-01T06:29:32;16.40;99.90
15937;DHT22;9163;48.818;8.976;2023-08-01T06:32:01;16.30;99.90
15937;DHT22;9163;48.818;8.976;2023-08-01T06:34:28;16.20;99.90
15937;DHT22;9163;48.818;8.976;2023-08-01T06:36:55;16.20;99.90
15937;DHT22;9163;48.818;8.976;2023-08-01T06:39:23;16.10;99.90
15937;DHT22;9163;48.818;8.976;2023-08-01T06:41:50;16.10;99.90
15937;DHT22;9163;48.818;8.976;2023-08-01T06:44:17;16.00;99.90
15937;DHT22;9163;48.818;8.976;2023-08-01T06:46:44;16.00;99.90
15937;DHT22;9163;48.818;8.976;2023-08-01T06:49:13;15.80;99.90
15937;DHT22;9163;48.818;8.976;2023-08-01T06:51:40;15.80;99.90
15937;DHT22;9163;48.818;8.976;2023-08-01T06:54:08;15.80;99.90
15937;DHT22;9163;48.818;8.976;2023-08-01T06:56:36;15.80;99.90
15937;DHT22;9163;48.818;8.976;2023-08-01T06:59:03;15.90;99.90
15937;DHT22;9163;48.818;8.976;2023-08-01T07:01:30;16.00;99.90
15937;DHT22;9163;48.818;8.976;2023-08-01T07:03:58;16.00;99.90
15937;DHT22;9163;48.818;8.976;2023-08-01T07:06:27;16.10;99.90
15937;DHT22;9163;48.818;8.976;2023-08-01T07:08:54;16.10;99.90
15937;DHT22;9163;48.818;8.976;2023-08-01T07:11:23;16.10;99.90
15937;DHT22;9163;48.818;8.976;2023-08-01T07:13:50;16.10;99.90
15937;DHT22;9163;48.818;8.976;2023-08-01T07:16:17;16.20;99.90
15937;DHT22;9163;48.818;8.976;2023-08-01T07:18:45;16.20;99.90
15937;DHT22;9163;48.818;8.976;2023-08-01T07:21:14;16.10;99.90
15937;DHT22;9163;48.818;8.976;2023-08-01T07:23:45;16.00;99.90
15937;DHT22;9163;48.818;8.976;2023-08-01T07:26:14;15.80;99.90
15937;DHT22;9163;48.818;8.976;2023-08-01T07:28:41;15.60;99.90
15937;DHT22;9163;48.818;8.976;2023-08-01T07:31:10;15.40;99.90
15937;DHT22;9163;48.818;8.976;2023-08-01T07:33:37;15.30;99.90
15937;DHT22;9163;48.818;8.976;2023-08-01T07:36:05;15.30;99.90
15937;DHT22;9163;48.818;8.976;2023-08-01T07:38:33;15.30;99.90
15937;DHT22;9163;48.818;8.976;2023-08-01T07:41:04;15.30;99.90
15937;DHT22;9163;48.818;8.976;2023-08-01T07:43:33;15.30;99.90
15937;DHT22;9163;48.818;8.976;2023-08-01T07:46:00;15.20;99.90
15937;DHT22;9163;48.818;8.976;2023-08-01T07:48:28;15.20;99.90
15937;DHT22;9163;48.818;8.976;2023-08-01T07:50:55;15.20;99.90
15937;DHT22;9163;48.818;8.976;2023-08-01T07:53:22;15.30;99.90
15937;DHT22;9163;48.818;8.976;2023-08-01T07:55:51;15.30;99.90
15937;DHT22;9163;48.818;8.976;2023-08-01T07:58:20;15.40;99.90
15937;DHT22;9163;48.818;8.976;2023-08-01T08:00:47;15.50;99.90
15937;DHT22;9163;48.818;8.976;2023-08-01T08:03:15;15.50;99.90
15937;DHT22;9163;48.818;8.976;2023-08-01T08:05:42;15.50;99.90
15937;DHT22;9163;48.818;8.976;2023-08-01T08:08:09;15.50;99.90
15937;DHT22;9163;48.818;8.976;2023-08-01T08:10:36;15.50;99.90
15937;DHT22;9163;48.818;8.976;2023-08-01T08:13:04;15.50;99.90
15937;DHT22;9163;48.818;8.976;2023-08-01T08:15:32;15.60;99.90
15937;DHT22;9163;48.818;8.976;2023-08-01T08:18:00;15.70;99.90
15937;DHT22;9163;48.818;8.976;2023-08-01T08:20:30;15.70;99.90
15937;DHT22;9163;48.818;8.976;2023-08-01T08:22:57;15.70;99.90
15937;DHT22;9163;48.818;8.976;2023-08-01T08:25:24;15.70;99.90
15937;DHT22;9163;48.818;8.976;2023-08-01T08:27:51;15.70;99.90
15937;DHT22;9163;48.818;8.976;2023-08-01T08:30:19;15.80;99.90
15937;DHT22;9163;48.818;8.976;2023-08-01T08:32:47;15.90;99.90
15937;DHT22;9163;48.818;8.976;2023-08-01T08:35:15;16.00;99.90
15937;DHT22;9163;48.818;8.976;2023-08-01T08:37:42;16.10;99.90
15937;DHT22;9163;48.818;8.976;2023-08-01T08:40:10;16.10;99.90
15937;DHT22;9163;48.818;8.976;2023-08-01T08:42:39;16.20;99.90
15937;DHT22;9163;48.818;8.976;2023-08-01T08:45:07;16.20;99.90
15937;DHT22;9163;48.818;8.976;2023-08-01T08:47:36;16.30;99.90
15937;DHT22;9163;48.818;8.976;2023-08-01T08:50:06;16.50;99.90
15937;DHT22;9163;48.818;8.976;2023-08-01T08:52:34;16.60;99.90
15937;DHT22;9163;48.818;8.976;2023-08-01T08:55:02;16.80;99.90
15937;DHT22;9163;48.818;8.976;2023-08-01T08:57:30;17.10;99.90
15937;DHT22;9163;48.818;8.976;2023-08-01T08:59:58;17.10;99.90
15937;DHT22;9163;48.818;8.976;2023-08-01T09:02:26;17.00;99.90
15937;DHT22;9163;48.818;8.976;2023-08-01T09:04:54;16.80;99.90
15937;DHT22;9163;48.818;8.976;2023-08-01T09:07:24;16.70;99.90
15937;DHT22;9163;48.818;8.976;2023-08-01T09:09:53;16.50;99.90
15937;DHT22;9163;48.818;8.976;2023-08-01T09:12:21;16.50;99.90
15937;DHT22;9163;48.818;8.976;2023-08-01T09:14:50;16.50;99.90
15937;DHT22;9163;48.818;8.976;2023-08-01T09:17:18;16.50;99.90
15937;DHT22;9163;48.818;8.976;2023-08-01T09:19:45;16.50;99.90
15937;DHT22;9163;48.818;8.976;2023-08-01T09:22:12;16.60;99.90
15937;DHT22;9163;48.818;8.976;2023-08-01T09:24:52;16.60;99.90
15937;DHT22;9163;48.818;8.976;2023-08-01T09:27:20;16.70;99.90
15937;DHT22;9163;48.818;8.976;2023-08-01T09:29:48;16.80;99.90
15937;DHT22;9163;48.818;8.976;2023-08-01T09:32:15;16.90;99.90
15937;DHT22;9163;48.818;8.976;2023-08-01T09:34:43;17.00;99.90
15937;DHT22;9163;48.818;8.976;2023-08-01T09:37:11;17.10;99.90
15937;DHT22;9163;48.818;8.976;2023-08-01T09:39:38;17.20;99.90
15937;DHT22;9163;48.818;8.976;2023-08-01T09:42:08;17.30;99.90
15937;DHT22;9163;48.818;8.976;2023-08-01T09:44:35;17.40;99.90
15937;DHT22;9163;48.818;8.976;2023-08-01T09:47:04;17.60;99.90
15937;DHT22;9163;48.818;8.976;2023-08-01T09:49:32;17.70;99.90
15937;DHT22;9163;48.818;8.976;2023-08-01T09:52:00;17.60;99.90
15937;DHT22;9163;48.818;8.976;2023-08-01T09:54:28;17.70;99.90
15937;DHT22;9163;48.818;8.976;2023-08-01T09:56:55;17.70;99.90
15937;DHT22;9163;48.818;8.976;2023-08-01T09:59:25;17.70;99.90
15937;DHT22;9163;48.818;8.976;2023-08-01T10:01:54;17.90;99.90
15937;DHT22;9163;48.818;8.976;2023-08-01T10:04:25;17.80;99.90
15937;DHT22;9163;48.818;8.976;2023-08-01T10:06:56;17.90;99.90
15937;DHT22;9163;48.818;8.976;2023-08-01T10:09:24;18.00;99.90
15937;DHT22;9163;48.818;8.976;2023-08-01T10:11:52;18.10;99.90
15937;DHT22;9163;48.818;8.976;2023-08-01T10:14:20;18.00;99.90
15937;DHT22;9163;48.818;8.976;2023-08-01T10:16:49;18.10;99.90
15937;DHT22;9163;48.818;8.976;2023-08-01T10:19:19;18.10;99.90
15937;DHT22;9163;48.818;8.976;2023-08-01T10:21:47;18.10;99.90
15937;DHT22;9163;48.818;8.976;2023-08-01T10:24:15;18.10;99.90
15937;DHT22;9163;48.818;8.976;2023-08-01T10:26:44;18.10;99.90
15937;DHT22;9163;48.818;8.976;2023-08-01T10:29:12;18.00;99.90
15937;DHT22;9163;48.818;8.976;2023-08-01T10:31:51;18.50;99.90
15937;DHT22;9163;48.818;8.976;2023-08-01T10:34:19;18.90;99.90
15937;DHT22;9163;48.818;8.976;2023-08-01T10:36:54;18.90;99.90
15937;DHT22;9163;48.818;8.976;2023-08-01T10:39:22;19.00;99.90
15937;DHT22;9163;48.818;8.976;2023-08-01T10:41:57;19.10;99.90
15937;DHT22;9163;48.818;8.976;2023-08-01T10:44:25;19.50;99.90
15937;DHT22;9163;48.818;8.976;2023-08-01T10:46:55;19.70;99.90
15937;DHT22;9163;48.818;8.976;2023-08-01T10:49:34;19.90;99.90
15937;DHT22;9163;48.818;8.976;2023-08-01T10:52:02;20.30;99.90
15937;DHT22;9163;48.818;8.976;2023-08-01T10:54:29;19.90;99.90
15937;DHT22;9163;48.818;8.976;2023-08-01T10:56:58;20.00;99.90
15937;DHT22;9163;48.818;8.976;2023-08-01T10:59:26;20.20;99.90
15937;DHT22;9163;48.818;8.976;2023-08-01T11:01:59;20.40;99.90
15937;DHT22;9163;48.818;8.976;2023-08-01T11:04:27;20.40;92.20
15937;DHT22;9163;48.818;8.976;2023-08-01T11:06:55;20.30;86.00
15937;DHT22;9163;48.818;8.976;2023-08-01T11:09:24;20.40;99.90
15937;DHT22;9163;48.818;8.976;2023-08-01T11:11:53;20.80;93.10
15937;DHT22;9163;48.818;8.976;2023-08-01T11:14:21;20.70;79.00
15937;DHT22;9163;48.818;8.976;2023-08-01T11:16:50;20.70;88.20
15937;DHT22;9163;48.818;8.976;2023-08-01T11:19:19;20.10;90.70
15937;DHT22;9163;48.818;8.976;2023-08-01T11:21:47;19.90;99.90
15937;DHT22;9163;48.818;8.976;2023-08-01T11:24:15;20.40;82.20
15937;DHT22;9163;48.818;8.976;2023-08-01T11:26:43;20.70;89.00
15937;DHT22;9163;48.818;8.976;2023-08-01T11:29:11;20.70;90.60
15937;DHT22;9163;48.818;8.976;2023-08-01T11:31:38;20.80;83.60
15937;DHT22;9163;48.818;8.976;2023-08-01T11:34:07;21.00;54.80
15937;DHT22;9163;48.818;8.976;2023-08-01T11:36:37;20.80;53.20
15937;DHT22;9163;48.818;8.976;2023-08-01T11:39:04;20.80;75.70
15937;DHT22;9163;48.818;8.976;2023-08-01T11:41:31;20.40;62.20
15937;DHT22;9163;48.818;8.976;2023-08-01T11:44:02;20.60;76.50
15937;DHT22;9163;48.818;8.976;2023-08-01T11:46:31;20.60;57.00
15937;DHT22;9163;48.818;8.976;2023-08-01T11:48:59;20.70;51.50
15937;DHT22;9163;48.818;8.976;2023-08-01T11:51:27;20.60;56.00
15937;DHT22;9163;48.818;8.976;2023-08-01T11:54:00;20.70;73.00
15937;DHT22;9163;48.818;8.976;2023-08-01T11:56:27;20.70;44.70
15937;DHT22;9163;48.818;8.976;2023-08-01T11:58:55;20.90;46.60
15937;DHT22;9163;48.818;8.976;2023-08-01T12:01:22;21.10;30.30
15937;DHT22;9163;48.818;8.976;2023-08-01T12:03:51;21.30;32.70
15937;DHT22;9163;48.818;8.976;2023-08-01T12:06:20;21.60;30.00
15937;DHT22;9163;48.818;8.976;2023-08-01T12:08:49;21.70;25.10
15937;DHT22;9163;48.818;8.976;2023-08-01T12:11:22;21.40;16.70
15937;DHT22;9163;48.818;8.976;2023-08-01T12:14:00;21.30;26.00
15937;DHT22;9163;48.818;8.976;2023-08-01T12:16:28;21.60;19.80
15937;DHT22;9163;48.818;8.976;2023-08-01T12:18:56;21.20;15.80
15937;DHT22;9163;48.818;8.976;2023-08-01T12:21:23;21.40;5.00
15937;DHT22;9163;48.818;8.976;2023-08-01T12:23:50;22.00;8.20
15937;DHT22;9163;48.818;8.976;2023-08-01T12:26:18;22.40;1.00
15937;DHT22;9163;48.818;8.976;2023-08-01T12:28:46;22.60;1.00
15937;DHT22;9163;48.818;8.976;2023-08-01T12:31:16;22.50;1.00
15937;DHT22;9163;48.818;8.976;2023-08-01T12:33:44;22.00;1.00
15937;DHT22;9163;48.818;8.976;2023-08-01T12:36:11;22.10;1.00
15937;DHT22;9163;48.818;8.976;2023-08-01T12:38:38;22.50;1.00
15937;DHT22;9163;48.818;8.976;2023-08-01T12:41:06;22.70;1.00
15937;DHT22;9163;48.818;8.976;2023-08-01T12:43:33;21.80;1.00
15937;DHT22;9163;48.818;8.976;2023-08-01T12:46:02;21.80;1.00
15937;DHT22;9163;48.818;8.976;2023-08-01T12:48:30;21.90;1.00
15937;DHT22;9163;48.818;8.976;2023-08-01T12:50:57;22.30;1.00
15937;DHT22;9163;48.818;8.976;2023-08-01T12:53:24;22.70;1.00
15937;DHT22;9163;48.818;8.976;2023-08-01T12:55:52;22.40;1.00
15937;DHT22;9163;48.818;8.976;2023-08-01T12:58:19;22.30;1.00
15937;DHT22;9163;48.818;8.976;2023-08-01T13:00:46;21.80;1.00
15937;DHT22;9163;48.818;8.976;2023-08-01T13:03:15;21.30;1.00
15937;DHT22;9163;48.818;8.976;2023-08-01T13:05:42;21.80;1.00
15937;DHT22;9163;48.818;8.976;2023-08-01T13:08:10;21.70;1.00
15937;DHT22;9163;48.818;8.976;2023-08-01T13:10:38;22.20;1.00
15937;DHT22;9163;48.818;8.976;2023-08-01T13:13:06;22.70;1.00
15937;DHT22;9163;48.818;8.976;2023-08-01T13:15:35;23.10;1.00
15937;DHT22;9163;48.818;8.976;2023-08-01T13:18:02;22.50;1.00
15937;DHT22;9163;48.818;8.976;2023-08-01T13:20:31;22.20;1.00
15937;DHT22;9163;48.818;8.976;2023-08-01T13:22:58;22.90;1.00
15937;DHT22;9163;48.818;8.976;2023-08-01T13:25:25;22.90;1.00
15937;DHT22;9163;48.818;8.976;2023-08-01T13:27:52;22.20;1.00
15937;DHT22;9163;48.818;8.976;2023-08-01T13:30:19;22.60;1.00
15937;DHT22;9163;48.818;8.976;2023-08-01T13:32:47;22.30;1.00
15937;DHT22;9163;48.818;8.976;2023-08-01T13:35:14;22.40;1.00
15937;DHT22;9163;48.818;8.976;2023-08-01T13:37:43;22.40;1.00
15937;DHT22;9163;48.818;8.976;2023-08-01T13:40:11;21.80;1.00
15937;DHT22;9163;48.818;8.976;2023-08-01T13:42:40;21.50;1.00
15937;DHT22;9163;48.818;8.976;2023-08-01T13:45:07;21.80;1.00
15937;DHT22;9163;48.818;8.976;2023-08-01T13:47:35;22.10;1.00
15937;DHT22;9163;48.818;8.976;2023-08-01T13:50:02;22.30;1.00
15937;DHT22;9163;48.818;8.976;2023-08-01T13:52:29;22.00;1.00
15937;DHT22;9163;48.818;8.976;2023-08-01T13:54:58;22.00;1.00
15937;DHT22;9163;48.818;8.976;2023-08-01T13:57:25;21.70;1.00
15937;DHT22;9163;48.818;8.976;2023-08-01T13:59:53;21.70;1.00
15937;DHT22;9163;48.818;8.976;2023-08-01T14:02:20;22.10;1.00
15937;DHT22;9163;48.818;8.976;2023-08-01T14:04:51;22.20;1.00
15937;DHT22;9163;48.818;8.976;2023-08-01T14:07:18;22.20;1.00
15937;DHT22;9163;48.818;8.976;2023-08-01T14:09:45;22.10;1.00
15937;DHT22;9163;48.818;8.976;2023-08-01T14:12:14;22.20;1.00
15937;DHT22;9163;48.818;8.976;2023-08-01T14:14:43;22.20;1.00
15937;DHT22;9163;48.818;8.976;2023-08-01T14:17:10;22.30;1.00
15937;DHT22;9163;48.818;8.976;2023-08-01T14:19:37;22.60;1.00
15937;DHT22;9163;48.818;8.976;2023-08-01T14:22:05;22.30;1.00
15937;DHT22;9163;48.818;8.976;2023-08-01T14:24:32;22.70;1.00
15937;DHT22;9163;48.818;8.976;2023-08-01T14:26:59;23.10;1.00
15937;DHT22;9163;48.818;8.976;2023-08-01T14:29:28;23.40;1.00
15937;DHT22;9163;48.818;8.976;2023-08-01T14:31:55;23.30;1.00
15937;DHT22;9163;48.818;8.976;2023-08-01T14:34:22;23.20;1.00
15937;DHT22;9163;48.818;8.976;2023-08-01T14:36:49;23.60;1.00
15937;DHT22;9163;48.818;8.976;2023-08-01T14:39:17;23.90;1.00
15937;DHT22;9163;48.818;8.976;2023-08-01T14:41:44;23.40;1.00
15937;DHT22;9163;48.818;8.976;2023-08-01T14:44:11;22.70;1.00
15937;DHT22;9163;48.818;8.976;2023-08-01T14:46:40;22.60;1.00
15937;DHT22;9163;48.818;8.976;2023-08-01T14:49:07;22.30;1.00
15937;DHT22;9163;48.818;8.976;2023-08-01T14:51:34;22.40;1.00
15937;DHT22;9163;48.818;8.976;2023-08-01T14:54:01;22.20;1.00
15937;DHT22;9163;48.818;8.976;2023-08-01T14:56:29;22.40;1.00
15937;DHT22;9163;48.818;8.976;2023-08-01T14:58:56;22.80;1.00
15937;DHT22;9163;48.818;8.976;2023-08-01T15:01:24;22.80;1.00
15937;DHT22;9163;48.818;8.976;2023-08-01T15:03:53;22.90;1.00
15937;DHT22;9163;48.818;8.976;2023-08-01T15:06:20;22.70;1.00
15937;DHT22;9163;48.818;8.976;2023-08-01T15:08:48;22.60;1.00
15937;DHT22;9163;48.818;8.976;2023-08-01T15:11:15;22.70;1.00
15937;DHT22;9163;48.818;8.976;2023-08-01T15:13:42;22.50;1.00
15937;DHT22;9163;48.818;8.976;2023-08-01T15:16:10;22.60;1.00
15937;DHT22;9163;48.818;8.976;2023-08-01T15:18:38;22.80;1.00
15937;DHT22;9163;48.818;8.976;2023-08-01T15:21:07;23.20;1.00
15937;DHT22;9163;48.818;8.976;2023-08-01T15:23:34;23.20;1.00
15937;DHT22;9163;48.818;8.976;2023-08-01T15:26:01;22.90;1.00
15937;DHT22;9163;48.818;8.976;2023-08-01T15:28:28;22.60;1.00
15937;DHT22;9163;48.818;8.976;2023-08-01T15:31:04;22.50;1.00
15937;DHT22;9163;48.818;8.976;2023-08-01T15:33:32;22.30;1.00
15937;DHT22;9163;48.818;8.976;2023-08-01T15:36:01;22.50;1.00
15937;DHT22;9163;48.818;8.976;2023-08-01T15:38:31;22.40;1.00
15937;DHT22;9163;48.818;8.976;2023-08-01T15:40:59;22.30;1.00
15937;DHT22;9163;48.818;8.976;2023-08-01T15:43:29;22.40;1.00
15937;DHT22;9163;48.818;8.976;2023-08-01T15:45:56;22.50;1.00
15937;DHT22;9163;48.818;8.976;2023-08-01T15:48:24;22.30;1.00
15937;DHT22;9163;48.818;8.976;2023-08-01T15:50:51;22.20;1.00
15937;DHT22;9163;48.818;8.976;2023-08-01T15:53:19;22.20;1.00